Time;durP1;ratioP1;P1;durP2;ratioP2;P2;SDS_P1;SDS_P2;PMS_P1;PMS_P2;Temp;Humidity;BMP_temperature;BMP_pressure;BME280_temperature;BME280_humidity;BME280_pressure;Samples;Min_cycle;Max_cycle;Signal;HPM_P1;HPM_P2
2021/12/17 00:01:00;;;;;;;17.10;13.10;;;6.30;84.40;;;;;;5113262;28;20562;-58
2021/12/17 00:03:37;;;;;;;17.90;13.30;;;6.20;85.10;;;;;;5114661;28;20223;-58
2021/12/17 00:06:40;;;;;;;20.48;13.75;;;6.30;85.00;;;;;;5117386;28;20194;-58
2021/12/17 00:09:06;;;;;;;20.08;13.52;;;6.20;84.90;;;;;;5117193;28;20206;-58
2021/12/17 00:11:33;;;;;;;23.90;13.60;;;6.10;85.00;;;;;;5117122;28;20227;-57
2021/12/17 00:14:00;;;;;;;23.10;14.85;;;6.10;85.40;;;;;;5117202;28;20199;-59
2021/12/17 00:16:34;;;;;;;23.15;13.57;;;6.10;85.80;;;;;;5117236;28;20294;-59
2021/12/17 00:19:14;;;;;;;21.20;12.35;;;6.20;86.00;;;;;;5115702;28;20286;-56
2021/12/17 00:48:23;;;;;;;19.27;12.80;;;6.40;84.80;;;;;;5116613;28;20233;-58
2021/12/17 00:49:27;;;;;;;17.17;11.65;;;6.50;84.80;;;;;;5115136;28;20203;-58
2021/12/17 00:51:59;;;;;;;15.10;11.20;;;6.60;84.80;;;;;;5116458;28;20326;-58
2021/12/17 00:54:32;;;;;;;17.90;12.02;;;6.70;84.70;;;;;;5116595;28;20290;-58
2021/12/17 00:57:03;;;;;;;19.20;12.75;;;6.70;84.70;;;;;;5116350;28;20199;-58
2021/12/17 00:59:30;;;;;;;16.70;11.05;;;6.90;84.50;;;;;;5116534;28;20686;-58
2021/12/17 01:02:01;;;;;;;17.48;11.60;;;7.00;84.40;;;;;;5116397;28;20199;-58
2021/12/17 01:04:29;;;;;;;17.40;11.48;;;7.00;84.20;;;;;;5115018;28;20294;-59
2021/12/17 01:06:56;;;;;;;19.58;12.73;;;7.10;84.10;;;;;;5116407;28;20298;-58
2021/12/17 01:09:26;;;;;;;19.70;12.10;;;7.10;83.80;;;;;;5116218;28;20200;-60
2021/12/17 01:11:55;;;;;;;19.17;11.82;;;7.00;83.70;;;;;;5116223;28;20241;-58
2021/12/17 01:14:22;;;;;;;18.55;11.70;;;7.10;84.20;;;;;;5115316;28;20213;-59
2021/12/17 01:16:52;;;;;;;21.10;12.65;;;7.10;83.90;;;;;;5116193;28;20369;-59
2021/12/17 01:19:28;;;;;;;22.40;11.75;;;7.00;84.20;;;;;;5114718;28;20669;-58
2021/12/17 01:22:14;;;;;;;18.63;12.50;;;7.00;84.60;;;;;;5115880;28;20203;-57
2021/12/17 01:24:47;;;;;;;22.58;13.25;;;7.00;84.60;;;;;;5115935;28;20195;-57
2021/12/17 01:35:44;;;;;;;18.73;13.45;;;7.10;84.30;;;;;;5102279;28;20238;-57
2021/12/17 01:41:13;;;;;;;22.30;13.00;;;7.00;84.40;;;;;;5115607;28;20195;-58
2021/12/17 01:43:44;;;;;;;19.85;11.75;;;7.10;84.50;;;;;;5115387;28;20227;-58
2021/12/17 01:46:13;;;;;;;16.25;11.30;;;7.10;84.60;;;;;;5115613;27;20196;-58
2021/12/17 01:48:57;;;;;;;21.77;13.57;;;7.20;84.60;;;;;;5114178;28;20294;-58
2021/12/17 01:56:59;;;;;;;21.38;12.70;;;7.30;84.30;;;;;;5115427;28;20522;-58
2021/12/17 01:59:33;;;;;;;20.77;12.85;;;7.20;84.10;;;;;;5115052;28;20204;-58
2021/12/17 02:02:05;;;;;;;21.02;13.32;;;7.20;84.20;;;;;;5115122;28;20250;-58
2021/12/17 02:04:32;;;;;;;23.55;13.55;;;7.30;84.40;;;;;;5113915;28;20554;-58
2021/12/17 02:07:00;;;;;;;20.88;13.55;;;7.20;84.20;;;;;;5115068;28;20294;-58
2021/12/17 02:10:11;;;;;;;22.95;13.15;;;7.20;84.50;;;;;;5115128;28;20211;-62
2021/12/17 02:13:01;;;;;;;21.05;13.35;;;7.20;84.50;;;;;;5115004;28;20238;-59
2021/12/17 02:29:54;;;;;;;20.77;13.43;;;7.30;84.10;;;;;;5114735;28;20248;-58
2021/12/17 02:32:24;;;;;;;19.02;12.77;;;7.20;84.40;;;;;;5114666;28;20231;-58
2021/12/17 02:35:05;;;;;;;21.88;12.77;;;7.30;84.60;;;;;;5113181;28;20230;-58
2021/12/17 02:37:34;;;;;;;21.38;13.48;;;7.30;84.70;;;;;;5114651;28;20203;-56
2021/12/17 02:40:16;;;;;;;20.10;13.02;;;7.40;84.30;;;;;;5114539;28;20207;-58
2021/12/17 02:45:34;;;;;;;22.40;12.43;;;7.30;83.90;;;;;;5114278;28;20328;-57
2021/12/17 02:48:05;;;;;;;20.15;12.15;;;7.10;84.60;;;;;;5113031;28;20214;-58
2021/12/17 02:50:33;;;;;;;16.35;10.82;;;7.10;85.10;;;;;;5114355;28;20300;-58
2021/12/17 02:53:03;;;;;;;17.30;10.82;;;7.20;85.00;;;;;;5114169;28;20233;-58
2021/12/17 02:55:31;;;;;;;15.27;10.93;;;7.20;85.00;;;;;;5114357;28;20290;-58
2021/12/17 02:57:59;;;;;;;16.02;10.65;;;7.30;84.70;;;;;;5114119;28;20209;-58
2021/12/17 03:00:26;;;;;;;16.48;10.63;;;7.30;84.90;;;;;;5114212;28;20553;-58
2021/12/17 03:02:56;;;;;;;22.20;11.98;;;7.40;84.80;;;;;;5113138;28;20233;-59
2021/12/17 03:05:26;;;;;;;17.42;12.05;;;7.40;84.40;;;;;;5114060;28;20622;-58
2021/12/17 03:07:53;;;;;;;16.60;10.88;;;7.40;84.60;;;;;;5114073;28;20199;-58
2021/12/17 03:10:22;;;;;;;18.08;12.80;;;7.50;84.50;;;;;;5113912;28;20286;-59
2021/12/17 03:12:52;;;;;;;22.88;13.85;;;7.50;84.10;;;;;;5113958;28;20610;-58
2021/12/17 03:15:26;;;;;;;15.98;12.05;;;7.50;83.90;;;;;;5113869;28;20295;-58
2021/12/17 03:18:37;;;;;;;17.02;11.43;;;7.50;84.00;;;;;;5113239;28;20202;-58
2021/12/17 03:23:45;;;;;;;18.23;12.88;;;7.50;83.90;;;;;;5113787;28;20575;-58
2021/12/17 03:26:14;;;;;;;21.15;13.48;;;7.40;83.60;;;;;;5113770;28;20199;-58
2021/12/17 03:28:43;;;;;;;19.02;12.23;;;7.30;83.90;;;;;;5113671;28;20569;-58
2021/12/17 03:31:11;;;;;;;18.00;13.18;;;7.40;84.20;;;;;;5113546;28;20223;-58
2021/12/17 03:33:41;;;;;;;21.00;13.88;;;7.30;83.70;;;;;;5112316;28;20257;-62
2021/12/17 03:36:09;;;;;;;17.58;13.10;;;7.30;83.70;;;;;;5113626;28;20203;-59
2021/12/17 03:38:36;;;;;;;20.40;12.68;;;7.20;84.00;;;;;;5113098;28;20293;-60
2021/12/17 03:41:15;;;;;;;20.42;13.02;;;7.10;84.30;;;;;;5113452;28;20218;-59
2021/12/17 03:43:43;;;;;;;17.17;12.52;;;7.00;84.70;;;;;;5113230;28;20231;-58
2021/12/17 03:46:10;;;;;;;20.55;14.32;;;7.10;84.80;;;;;;5113342;28;20201;-58
2021/12/17 03:48:39;;;;;;;21.23;14.25;;;7.20;84.30;;;;;;5112251;28;20217;-58
2021/12/17 03:51:12;;;;;;;23.42;14.73;;;7.20;84.00;;;;;;5113353;28;20286;-58
2021/12/17 03:53:39;;;;;;;19.65;15.20;;;7.30;83.70;;;;;;5113591;28;20252;-58
2021/12/17 03:56:07;;;;;;;20.27;14.98;;;7.20;82.90;;;;;;5113379;28;20294;-59
2021/12/17 03:58:34;;;;;;;19.73;15.00;;;7.10;83.60;;;;;;5113147;28;20205;-62
2021/12/17 04:01:03;;;;;;;19.35;13.98;;;7.00;83.50;;;;;;5113193;28;20658;-58
2021/12/17 04:03:30;;;;;;;19.30;13.15;;;7.00;84.10;;;;;;5112023;28;20203;-58
2021/12/17 04:05:57;;;;;;;17.95;14.27;;;7.00;84.00;;;;;;5113237;28;20206;-64
2021/12/17 04:08:24;;;;;;;18.30;14.43;;;7.00;84.30;;;;;;5113220;28;20238;-58
2021/12/17 04:10:53;;;;;;;19.23;12.77;;;6.90;84.20;;;;;;5113178;28;20241;-57
2021/12/17 04:13:28;;;;;;;22.35;14.90;;;6.80;84.10;;;;;;5113201;28;20261;-60
2021/12/17 04:15:58;;;;;;;22.85;15.15;;;6.70;84.70;;;;;;5113112;28;20536;-65
2021/12/17 04:18:27;;;;;;;20.95;14.63;;;6.70;84.90;;;;;;5111783;28;20290;-58
2021/12/17 04:20:54;;;;;;;21.83;16.02;;;6.70;85.20;;;;;;5113103;28;20210;-60
2021/12/17 04:23:21;;;;;;;20.00;14.52;;;6.70;85.40;;;;;;5113069;28;20290;-58
2021/12/17 04:25:49;;;;;;;22.23;15.80;;;6.70;85.10;;;;;;5113074;28;20203;-58
2021/12/17 04:28:17;;;;;;;20.50;14.65;;;6.70;85.30;;;;;;5113020;28;20571;-59
2021/12/17 04:30:44;;;;;;;19.73;14.60;;;6.70;85.30;;;;;;5113070;28;20200;-58
2021/12/17 04:33:12;;;;;;;16.92;13.05;;;6.80;85.30;;;;;;5111599;28;20695;-57
2021/12/17 04:35:40;;;;;;;17.55;13.40;;;6.80;85.20;;;;;;5113053;28;20202;-59
2021/12/17 04:38:09;;;;;;;22.85;15.02;;;6.90;85.20;;;;;;5112823;28;20294;-58
2021/12/17 04:40:37;;;;;;;17.77;14.05;;;7.00;84.70;;;;;;5112960;28;20550;-57
2021/12/17 04:43:15;;;;;;;18.35;14.48;;;7.00;84.20;;;;;;5112736;28;20210;-58
2021/12/17 04:45:47;;;;;;;22.77;14.75;;;7.00;83.80;;;;;;5112827;28;20242;-58
2021/12/17 04:59:12;;;;;;;14.75;10.63;;;6.70;85.80;;;;;;5116464;28;20220;-64
2021/12/17 05:01:39;;;;;;;12.18;9.25;;;6.80;85.50;;;;;;5116345;28;20245;-58
2021/12/17 05:04:06;;;;;;;15.10;9.77;;;6.90;85.60;;;;;;5115098;28;20286;-58
2021/12/17 05:06:35;;;;;;;13.05;8.65;;;7.00;85.20;;;;;;5116378;28;20298;-58
2021/12/17 05:09:08;;;;;;;16.30;10.15;;;7.00;85.10;;;;;;5116328;28;20195;-58
2021/12/17 05:20:01;;;;;;;12.88;9.18;;;7.10;84.80;;;;;;5114820;28;20275;-58
2021/12/17 05:22:29;;;;;;;12.93;9.18;;;7.20;84.90;;;;;;5116049;27;20678;-57
2021/12/17 05:24:56;;;;;;;13.77;9.63;;;7.20;84.70;;;;;;5115955;27;20209;-61
2021/12/17 05:27:23;;;;;;;11.05;8.70;;;7.20;84.00;;;;;;5116078;28;20306;-57
2021/12/17 05:29:50;;;;;;;13.50;9.93;;;7.10;84.50;;;;;;5115999;28;20650;-57
2021/12/17 05:32:17;;;;;;;13.38;9.35;;;7.10;84.60;;;;;;5115710;28;20322;-57
2021/12/17 05:34:44;;;;;;;13.65;9.13;;;7.20;84.50;;;;;;5114505;28;20298;-58
2021/12/17 05:37:11;;;;;;;10.27;8.02;;;7.10;84.20;;;;;;5115733;28;20741;-57
2021/12/17 05:39:40;;;;;;;10.25;8.15;;;7.20;84.60;;;;;;5115829;28;20210;-58
2021/12/17 05:42:07;;;;;;;10.50;8.00;;;7.30;84.70;;;;;;5115702;28;20238;-60
2021/12/17 05:44:34;;;;;;;12.68;8.38;;;7.30;84.00;;;;;;5115632;28;20237;-58
2021/12/17 05:47:01;;;;;;;12.85;8.98;;;7.20;83.60;;;;;;5115524;28;20286;-58
2021/12/17 05:49:28;;;;;;;13.35;7.45;;;7.20;84.10;;;;;;5114196;28;20203;-57
2021/12/17 05:51:55;;;;;;;9.73;7.90;;;7.20;83.50;;;;;;5115494;27;20223;-57
2021/12/17 05:54:22;;;;;;;8.43;6.80;;;7.00;84.00;;;;;;5115522;28;20207;-58
2021/12/17 05:56:52;;;;;;;10.13;7.43;;;6.90;83.90;;;;;;5115348;28;20242;-57
2021/12/17 05:59:19;;;;;;;9.10;7.40;;;6.90;84.80;;;;;;5115268;28;20204;-58
2021/12/17 06:01:46;;;;;;;8.20;7.35;;;7.00;84.40;;;;;;5114995;27;20314;-58
2021/12/17 06:04:13;;;;;;;10.88;8.32;;;7.00;84.50;;;;;;5113990;28;20225;-58
2021/12/17 06:06:46;;;;;;;9.93;7.45;;;7.10;84.00;;;;;;5115212;28;20236;-57
2021/12/17 06:09:13;;;;;;;11.45;8.70;;;7.10;83.30;;;;;;5115072;28;20286;-57
2021/12/17 06:11:40;;;;;;;11.27;7.97;;;7.00;83.90;;;;;;5114947;28;20565;-57
2021/12/17 06:14:08;;;;;;;12.82;8.57;;;7.00;84.00;;;;;;5114976;28;20298;-58
2021/12/17 06:16:35;;;;;;;10.82;7.47;;;7.00;83.90;;;;;;5115045;28;20302;-58
2021/12/17 06:19:02;;;;;;;10.15;7.30;;;7.00;84.10;;;;;;5113810;28;20203;-57
2021/12/17 06:21:29;;;;;;;8.52;7.30;;;7.00;83.70;;;;;;5114901;28;20298;-58
2021/12/17 06:23:56;;;;;;;10.35;7.85;;;6.90;83.80;;;;;;5114830;28;20579;-58
2021/12/17 06:26:23;;;;;;;7.80;6.35;;;6.90;83.90;;;;;;5114821;28;20206;-60
2021/12/17 06:28:50;;;;;;;10.70;7.05;;;6.90;83.60;;;;;;5114684;28;20199;-58
2021/12/17 06:31:19;;;;;;;13.15;7.95;;;6.80;83.80;;;;;;5114768;28;20560;-60
2021/12/17 06:33:46;;;;;;;11.10;7.55;;;6.80;84.10;;;;;;5113144;28;20701;-59
2021/12/17 06:36:13;;;;;;;11.20;7.70;;;6.80;84.10;;;;;;5114588;28;20213;-58
2021/12/17 06:38:40;;;;;;;11.63;8.45;;;6.80;84.10;;;;;;5114647;28;20210;-58
2021/12/17 06:41:07;;;;;;;9.27;7.63;;;6.90;84.10;;;;;;5114424;28;20195;-58
2021/12/17 06:43:38;;;;;;;12.70;8.00;;;6.90;83.60;;;;;;5114399;27;20621;-58
2021/12/17 06:46:19;;;;;;;9.77;7.93;;;7.00;84.00;;;;;;5114315;28;20207;-57
2021/12/17 06:48:51;;;;;;;11.10;7.70;;;6.90;83.70;;;;;;5113068;28;20200;-58
2021/12/17 06:59:46;;;;;;;10.60;8.13;;;7.20;82.70;;;;;;5074539;28;20193;-58
2021/12/17 07:21:41;;;;;;;15.00;10.85;;;6.80;83.90;;;;;;5113737;28;20194;-57
2021/12/17 07:32:46;;;;;;;15.48;10.60;;;7.00;83.60;;;;;;5102359;28;20579;-57
2021/12/17 07:35:26;;;;;;;12.38;8.55;;;6.90;83.30;;;;;;5112162;28;20245;-60
2021/12/17 07:40:39;;;;;;;10.25;8.10;;;6.90;83.30;;;;;;5113488;28;20346;-56
2021/12/17 07:43:13;;;;;;;11.73;8.13;;;6.90;82.90;;;;;;5113190;28;20200;-56
2021/12/17 07:45:40;;;;;;;9.23;8.18;;;6.90;83.30;;;;;;5113237;28;20206;-58
2021/12/17 07:48:07;;;;;;;11.60;8.45;;;7.00;83.20;;;;;;5111952;28;20205;-58
2021/12/17 07:50:35;;;;;;;10.63;8.23;;;7.00;82.90;;;;;;5113294;28;20199;-59
2021/12/17 07:53:04;;;;;;;11.57;8.00;;;7.00;82.60;;;;;;5113211;28;20227;-58
2021/12/17 07:55:31;;;;;;;11.13;8.40;;;6.90;82.60;;;;;;5113231;28;20736;-58
2021/12/17 07:57:58;;;;;;;10.23;8.40;;;7.00;82.80;;;;;;5113235;28;20227;-59
2021/12/17 08:00:24;;;;;;;12.68;8.63;;;6.90;82.00;;;;;;5113034;28;20314;-58
2021/12/17 08:02:51;;;;;;;11.85;8.40;;;7.00;82.70;;;;;;5112947;28;20214;-56
2021/12/17 08:05:18;;;;;;;12.35;8.10;;;6.80;82.00;;;;;;5112363;28;20222;-58
2021/12/17 08:07:46;;;;;;;10.43;8.05;;;6.80;82.30;;;;;;5113210;28;20214;-58
2021/12/17 08:10:14;;;;;;;10.20;8.05;;;6.90;82.40;;;;;;5113169;28;20195;-58
2021/12/17 08:12:41;;;;;;;9.13;8.02;;;6.90;82.40;;;;;;5113065;28;20247;-59
2021/12/17 08:15:12;;;;;;;9.90;7.75;;;7.00;82.80;;;;;;5112785;28;20666;-58
2021/12/17 08:18:12;;;;;;;9.48;7.75;;;7.10;82.30;;;;;;5112903;28;20206;-58
2021/12/17 08:26:27;;;;;;;9.65;7.32;;;7.10;81.50;;;;;;5074117;28;20652;-57
2021/12/17 08:29:11;;;;;;;11.15;8.10;;;7.10;81.60;;;;;;5074189;28;20238;-58
2021/12/17 08:31:38;;;;;;;8.20;6.93;;;7.20;81.70;;;;;;5099271;28;20203;-57
2021/12/17 08:34:05;;;;;;;7.97;7.18;;;7.10;80.60;;;;;;5115631;28;20230;-57
2021/12/17 08:36:33;;;;;;;10.98;8.48;;;7.10;80.60;;;;;;5116881;28;20203;-57
2021/12/17 08:39:00;;;;;;;13.63;8.73;;;7.00;80.50;;;;;;5116918;28;20309;-58
2021/12/17 08:41:28;;;;;;;10.43;8.20;;;6.90;81.00;;;;;;5116913;28;20199;-61
2021/12/17 08:43:56;;;;;;;10.40;8.40;;;6.80;80.40;;;;;;5116381;28;20227;-57
2021/12/17 08:46:23;;;;;;;9.30;7.85;;;6.90;81.30;;;;;;5116437;28;20290;-59
2021/12/17 08:48:50;;;;;;;10.43;8.93;;;7.00;81.70;;;;;;5115443;28;20226;-57
2021/12/17 08:51:17;;;;;;;10.30;8.80;;;7.00;80.10;;;;;;5116597;27;20286;-58
2021/12/17 08:53:44;;;;;;;11.25;9.20;;;6.90;80.10;;;;;;5116443;28;20590;-57
2021/12/17 08:56:13;;;;;;;10.30;8.88;;;6.90;80.70;;;;;;5116456;28;20214;-58
2021/12/17 08:58:42;;;;;;;10.27;8.48;;;6.80;80.40;;;;;;5116456;28;20290;-59
2021/12/17 09:01:09;;;;;;;11.40;8.68;;;6.90;80.50;;;;;;5116328;28;20226;-59
2021/12/17 09:03:35;;;;;;;9.23;8.25;;;6.90;80.70;;;;;;5115080;28;20249;-60
2021/12/17 09:06:03;;;;;;;10.30;8.45;;;7.00;80.80;;;;;;5116262;27;20213;-58
2021/12/17 09:08:30;;;;;;;9.88;8.45;;;6.90;79.50;;;;;;5116125;28;20574;-58
2021/12/17 09:10:57;;;;;;;11.40;8.68;;;6.80;80.40;;;;;;5116119;28;20591;-59
2021/12/17 09:13:26;;;;;;;10.13;8.63;;;6.70;79.30;;;;;;5115980;28;20237;-59
2021/12/17 09:15:57;;;;;;;11.68;9.32;;;6.70;80.80;;;;;;5116076;28;20200;-58
2021/12/17 09:18:25;;;;;;;9.90;8.90;;;6.70;80.20;;;;;;5114706;28;20549;-56
2021/12/17 09:20:52;;;;;;;11.00;8.38;;;6.70;80.30;;;;;;5115938;28;20200;-57
2021/12/17 09:23:20;;;;;;;12.88;9.48;;;6.70;80.80;;;;;;5115876;28;20290;-59
2021/12/17 09:25:46;;;;;;;12.07;8.73;;;6.80;80.70;;;;;;5115975;28;20302;-59
2021/12/17 09:28:13;;;;;;;11.55;8.80;;;6.80;80.90;;;;;;5115695;28;20233;-60
2021/12/17 09:30:41;;;;;;;9.48;8.30;;;6.90;80.00;;;;;;5115801;28;20203;-58
2021/12/17 09:33:09;;;;;;;10.25;9.23;;;6.90;79.80;;;;;;5114285;28;20330;-59
2021/12/17 09:35:36;;;;;;;12.30;9.20;;;7.00;79.90;;;;;;5114987;28;20296;-59
2021/12/17 09:38:04;;;;;;;11.20;9.00;;;6.90;79.60;;;;;;5115576;28;20203;-58
2021/12/17 09:40:31;;;;;;;10.70;9.48;;;6.90;79.20;;;;;;5115464;28;20286;-59
2021/12/17 09:42:58;;;;;;;8.70;7.80;;;6.90;79.10;;;;;;5115177;28;20638;-57
2021/12/17 09:45:24;;;;;;;10.25;9.25;;;6.90;79.40;;;;;;5115478;28;20195;-59
2021/12/17 09:47:51;;;;;;;11.45;9.63;;;7.00;79.60;;;;;;5115207;28;20207;-60
2021/12/17 09:50:21;;;;;;;12.98;9.73;;;7.10;79.30;;;;;;5114408;28;20199;-59
2021/12/17 09:52:48;;;;;;;13.80;10.02;;;7.10;79.10;;;;;;5115137;28;20207;-57
2021/12/17 09:55:15;;;;;;;12.70;10.13;;;7.10;78.70;;;;;;5115240;28;20290;-61
2021/12/17 09:57:43;;;;;;;12.15;9.77;;;7.20;79.50;;;;;;5115258;28;20213;-58
2021/12/17 10:00:14;;;;;;;12.23;9.57;;;7.30;79.20;;;;;;5115298;28;20585;-59
2021/12/17 10:02:43;;;;;;;12.50;9.43;;;7.40;79.10;;;;;;5115114;28;20203;-58
2021/12/17 10:05:13;;;;;;;12.45;9.88;;;7.40;78.80;;;;;;5113745;28;20241;-60
2021/12/17 10:07:44;;;;;;;11.77;10.20;;;7.50;77.90;;;;;;5114926;28;20233;-58
2021/12/17 10:10:13;;;;;;;10.60;9.25;;;7.40;78.50;;;;;;5115002;28;20210;-59
2021/12/17 10:12:41;;;;;;;13.20;10.27;;;7.50;78.70;;;;;;5115007;28;20206;-59
2021/12/17 10:15:10;;;;;;;11.85;9.50;;;7.60;78.30;;;;;;5115029;28;20230;-59
2021/12/17 10:17:50;;;;;;;11.23;9.57;;;7.70;78.10;;;;;;5114968;28;20290;-59
2021/12/17 10:20:17;;;;;;;12.00;9.88;;;7.80;77.90;;;;;;5113755;28;20294;-59
2021/12/17 10:22:47;;;;;;;11.60;10.40;;;7.80;77.70;;;;;;5114945;28;20213;-58
2021/12/17 10:25:14;;;;;;;12.73;9.77;;;7.80;77.70;;;;;;5114832;28;20209;-58
2021/12/17 10:27:43;;;;;;;13.40;10.75;;;7.90;77.40;;;;;;5114762;28;20253;-58
2021/12/17 10:30:13;;;;;;;14.02;9.98;;;7.90;77.20;;;;;;5114613;28;20603;-59
2021/12/17 10:32:43;;;;;;;10.25;9.15;;;7.90;77.20;;;;;;5114574;28;20210;-59
2021/12/17 10:35:12;;;;;;;14.18;10.30;;;7.90;77.40;;;;;;5113279;28;20233;-59
2021/12/17 10:37:42;;;;;;;12.85;10.88;;;7.90;77.20;;;;;;5114504;28;20290;-59
2021/12/17 10:40:23;;;;;;;12.10;10.48;;;8.00;77.00;;;;;;5114498;28;20235;-60
2021/12/17 10:45:44;;;;;;;11.52;9.70;;;8.10;77.00;;;;;;5114130;28;20195;-60
2021/12/17 10:48:23;;;;;;;10.65;9.55;;;8.20;76.70;;;;;;5112124;28;20609;-59
2021/12/17 10:50:52;;;;;;;10.50;9.40;;;8.30;77.10;;;;;;5114239;28;20203;-59
2021/12/17 10:53:23;;;;;;;10.85;9.35;;;8.30;76.40;;;;;;5114145;28;20223;-59
2021/12/17 10:55:52;;;;;;;11.60;10.40;;;8.50;75.80;;;;;;5114087;28;20203;-59
2021/12/17 10:58:19;;;;;;;10.80;9.80;;;8.60;75.90;;;;;;5114092;28;20294;-59
2021/12/17 11:00:55;;;;;;;9.23;8.38;;;8.70;75.90;;;;;;5114102;28;20199;-59
2021/12/17 11:03:22;;;;;;;10.45;9.38;;;8.80;75.20;;;;;;5112775;28;20214;-59
2021/12/17 11:05:49;;;;;;;10.40;9.50;;;9.00;75.60;;;;;;5113893;28;20199;-58
2021/12/17 11:08:30;;;;;;;11.77;10.60;;;9.50;76.20;;;;;;5113828;28;20202;-60
2021/12/17 11:11:08;;;;;;;11.65;10.65;;;11.10;74.10;;;;;;5113969;28;20210;-62
2021/12/17 11:13:35;;;;;;;13.18;11.98;;;13.20;70.00;;;;;;5113889;28;20241;-62
2021/12/17 11:16:03;;;;;;;11.50;10.50;;;15.40;66.10;;;;;;5113953;28;20233;-64
2021/12/17 11:18:30;;;;;;;12.57;11.47;;;17.10;59.30;;;;;;5112517;28;20199;-63
2021/12/17 11:20:58;;;;;;;14.37;13.37;;;18.40;59.60;;;;;;5113937;28;20449;-62
2021/12/17 11:23:27;;;;;;;14.23;13.13;;;19.70;56.90;;;;;;5113744;28;20453;-65
2021/12/17 11:25:54;;;;;;;13.03;12.13;;;20.50;51.50;;;;;;5113842;28;20457;-63
2021/12/17 11:28:23;;;;;;;14.10;13.17;;;21.20;51.30;;;;;;5113795;28;20445;-63
2021/12/17 11:30:52;;;;;;;11.97;11.13;;;21.90;51.70;;;;;;5113668;28;20491;-63
2021/12/17 11:33:20;;;;;;;13.53;12.50;;;22.60;48.90;;;;;;5112101;28;20936;-63
2021/12/17 11:35:49;;;;;;;15.83;14.43;;;23.30;46.50;;;;;;5113625;28;20795;-63
2021/12/17 11:38:21;;;;;;;14.43;13.40;;;23.70;47.60;;;;;;5113581;28;20940;-63
2021/12/17 11:40:51;;;;;;;14.87;13.77;;;24.10;42.40;;;;;;5113569;28;20871;-63
2021/12/17 11:43:39;;;;;;;15.53;14.43;;;24.40;46.20;;;;;;5113348;28;20972;-63
2021/12/17 11:46:12;;;;;;;15.83;14.60;;;24.90;45.50;;;;;;5113372;28;20453;-63
2021/12/17 11:48:39;;;;;;;15.07;13.97;;;25.50;44.60;;;;;;5112194;28;20445;-63
2021/12/17 11:51:11;;;;;;;13.57;12.57;;;25.90;42.70;;;;;;5113488;28;20442;-63
2021/12/17 11:53:43;;;;;;;15.70;14.50;;;26.10;42.40;;;;;;5113243;28;20483;-63
2021/12/17 11:56:10;;;;;;;15.90;14.73;;;26.30;41.90;;;;;;5113330;28;20451;-63
2021/12/17 11:58:53;;;;;;;16.33;14.93;;;26.50;41.80;;;;;;5116156;28;20474;-63
2021/12/17 12:01:55;;;;;;;15.03;13.93;;;26.10;39.80;;;;;;5120128;27;20493;-63
2021/12/17 12:04:38;;;;;;;15.67;14.67;;;26.40;40.70;;;;;;5118801;27;20459;-63
2021/12/17 12:07:07;;;;;;;15.77;14.67;;;26.80;39.80;;;;;;5118222;28;20455;-64
2021/12/17 12:09:56;;;;;;;14.73;13.73;;;27.20;39.40;;;;;;5120095;27;20445;-63
2021/12/17 12:12:25;;;;;;;16.23;15.13;;;27.50;38.30;;;;;;5120002;27;20445;-63
2021/12/17 12:14:54;;;;;;;16.27;15.00;;;28.00;38.10;;;;;;5119787;27;21051;-63
2021/12/17 12:17:58;;;;;;;15.97;14.77;;;28.20;36.70;;;;;;5120083;28;20434;-62
2021/12/17 12:20:58;;;;;;;15.80;14.80;;;28.50;36.40;;;;;;5119928;28;20540;-63
2021/12/17 12:23:45;;;;;;;17.50;16.20;;;28.70;33.90;;;;;;5119603;28;20485;-63
2021/12/17 12:26:25;;;;;;;15.87;14.77;;;28.30;34.40;;;;;;5119950;28;20440;-64
2021/12/17 12:29:14;;;;;;;14.40;13.40;;;27.50;34.40;;;;;;5119963;28;20876;-63
2021/12/17 12:32:20;;;;;;;15.50;14.50;;;26.10;33.30;;;;;;5119736;27;21019;-63
2021/12/17 12:34:47;;;;;;;14.17;13.23;;;24.70;35.60;;;;;;5118394;28;20892;-63
2021/12/17 12:37:27;;;;;;;14.53;13.53;;;23.70;36.10;;;;;;5119860;28;20451;-63
2021/12/17 12:40:21;;;;;;;13.87;12.87;;;22.50;38.50;;;;;;5119684;27;20445;-64
2021/12/17 12:42:57;;;;;;;13.87;12.87;;;22.20;39.90;;;;;;5119769;27;20445;-63
2021/12/17 12:45:24;;;;;;;15.37;14.20;;;22.10;40.20;;;;;;5119757;28;20444;-63
2021/12/17 12:48:00;;;;;;;14.77;13.67;;;21.90;40.70;;;;;;5119637;28;21004;-63
2021/12/17 12:50:29;;;;;;;14.30;13.37;;;21.80;40.60;;;;;;5119727;28;20487;-63
2021/12/17 12:52:59;;;;;;;14.80;13.80;;;21.30;40.40;;;;;;5119666;27;20512;-62
2021/12/17 12:55:29;;;;;;;14.40;13.40;;;20.50;41.90;;;;;;5119630;28;20995;-63
2021/12/17 12:58:06;;;;;;;15.60;14.50;;;20.00;42.50;;;;;;5119601;27;20469;-62
2021/12/17 13:00:38;;;;;;;16.60;15.30;;;19.30;43.00;;;;;;5119670;27;20437;-64
2021/12/17 13:03:09;;;;;;;15.80;14.67;;;18.60;44.50;;;;;;5118174;27;20940;-63
2021/12/17 13:05:36;;;;;;;15.47;13.97;;;17.70;46.10;;;;;;5119555;27;20449;-62
2021/12/17 13:08:05;;;;;;;15.40;14.10;;;17.30;47.90;;;;;;5119600;27;20451;-62
2021/12/17 13:10:35;;;;;;;16.30;15.10;;;17.20;47.90;;;;;;5116390;28;21014;-62
2021/12/17 13:13:07;;;;;;;13.73;12.73;;;16.80;48.50;;;;;;5116187;28;20477;-62
2021/12/17 13:15:43;;;;;;;14.90;13.80;;;16.60;49.20;;;;;;5116075;27;20492;-60
2021/12/17 13:21:17;;;;;;;15.80;14.60;;;16.20;50.20;;;;;;5116189;28;20945;-61
2021/12/17 13:23:52;;;;;;;14.90;13.90;;;15.80;51.10;;;;;;5115977;27;20440;-60
2021/12/17 13:26:23;;;;;;;15.40;14.30;;;15.50;51.80;;;;;;5116002;28;20439;-60
2021/12/17 13:28:59;;;;;;;15.30;14.20;;;14.80;53.00;;;;;;5115766;28;20295;-60
2021/12/17 13:31:41;;;;;;;13.20;12.07;;;14.10;54.70;;;;;;5115876;28;20211;-59
2021/12/17 13:34:14;;;;;;;14.02;12.82;;;13.20;57.40;;;;;;5114205;28;20268;-59
2021/12/17 13:36:52;;;;;;;15.95;14.65;;;12.70;60.90;;;;;;5115771;28;20213;-59
2021/12/17 13:39:20;;;;;;;12.90;11.82;;;12.50;59.40;;;;;;5115591;28;20286;-59
2021/12/17 13:41:48;;;;;;;16.70;15.15;;;12.60;59.90;;;;;;5115605;28;20290;-59
2021/12/17 13:44:33;;;;;;;17.10;15.80;;;12.50;60.00;;;;;;5115486;28;20243;-59
2021/12/17 13:47:27;;;;;;;15.50;14.30;;;12.50;59.70;;;;;;5115584;28;20210;-59
2021/12/17 13:50:02;;;;;;;16.35;14.90;;;12.30;62.10;;;;;;5114054;28;20676;-58
2021/12/17 13:52:31;;;;;;;15.80;14.35;;;12.00;62.80;;;;;;5115555;28;20287;-58
2021/12/17 13:55:02;;;;;;;16.95;15.48;;;11.80;62.70;;;;;;5115323;28;20262;-59
2021/12/17 13:57:30;;;;;;;15.88;14.60;;;11.70;64.50;;;;;;5115270;28;20490;-59
2021/12/17 14:00:12;;;;;;;15.98;14.48;;;11.60;63.30;;;;;;5115259;28;20294;-59
2021/12/17 14:02:41;;;;;;;16.45;15.18;;;11.50;63.90;;;;;;5115084;28;20287;-58
2021/12/17 14:05:12;;;;;;;14.63;13.43;;;11.50;63.00;;;;;;5113808;28;20778;-58
2021/12/17 14:07:40;;;;;;;14.65;13.35;;;11.40;64.20;;;;;;5115061;28;20209;-59
2021/12/17 14:10:10;;;;;;;15.15;13.68;;;11.40;63.90;;;;;;5115060;28;20330;-58
2021/12/17 14:12:39;;;;;;;15.52;14.13;;;11.20;66.40;;;;;;5114993;28;20227;-59
2021/12/17 14:15:09;;;;;;;14.13;12.93;;;11.00;65.80;;;;;;5114845;28;20232;-60
2021/12/17 14:17:38;;;;;;;14.65;13.45;;;10.90;65.40;;;;;;5114880;28;20203;-59
2021/12/17 14:20:15;;;;;;;15.18;13.88;;;10.90;65.90;;;;;;5113597;28;20204;-58
2021/12/17 14:22:44;;;;;;;14.20;12.90;;;11.00;66.60;;;;;;5114639;28;20654;-57
2021/12/17 14:25:25;;;;;;;15.82;14.45;;;11.00;66.20;;;;;;5114880;28;20204;-60
2021/12/17 14:27:53;;;;;;;15.88;14.40;;;11.10;65.30;;;;;;5114743;28;20217;-60
2021/12/17 14:30:24;;;;;;;13.90;12.65;;;11.10;66.50;;;;;;5114965;28;20249;-63
2021/12/17 14:32:51;;;;;;;14.90;13.73;;;11.00;65.70;;;;;;5114636;28;20203;-60
2021/12/17 14:35:44;;;;;;;16.02;14.43;;;10.80;67.10;;;;;;5113235;28;20230;-58
2021/12/17 14:38:11;;;;;;;15.60;14.30;;;10.60;67.90;;;;;;5114582;28;20250;-60
2021/12/17 14:40:43;;;;;;;15.32;13.70;;;10.40;68.80;;;;;;5114406;28;20290;-58
2021/12/17 14:43:26;;;;;;;14.50;13.30;;;10.30;68.00;;;;;;5114275;28;20944;-59
2021/12/17 14:45:57;;;;;;;14.75;13.40;;;10.20;69.20;;;;;;5114383;28;20256;-61
2021/12/17 14:48:34;;;;;;;14.30;13.10;;;9.90;72.50;;;;;;5113071;28;20644;-60
2021/12/17 15:02:38;;;;;;;14.82;13.32;;;8.90;76.00;;;;;;5113704;28;20274;-59
2021/12/17 15:05:06;;;;;;;15.75;14.25;;;8.80;76.70;;;;;;5112667;28;20256;-60
2021/12/17 15:07:35;;;;;;;16.80;14.45;;;8.80;76.50;;;;;;5113814;28;20614;-60
2021/12/17 15:10:03;;;;;;;15.23;13.82;;;8.80;76.60;;;;;;5113980;28;20625;-59
2021/12/17 15:12:39;;;;;;;15.32;13.70;;;8.80;76.20;;;;;;5113819;28;20204;-57
2021/12/17 15:15:19;;;;;;;15.00;13.50;;;8.70;77.00;;;;;;5113795;28;20266;-61
2021/12/17 15:17:48;;;;;;;16.48;14.45;;;8.50;77.50;;;;;;5113665;28;20264;-57
2021/12/17 15:20:17;;;;;;;13.32;12.13;;;8.40;77.50;;;;;;5108309;28;20205;-60
2021/12/17 15:22:45;;;;;;;16.08;14.20;;;8.30;77.90;;;;;;5112893;28;20204;-59